Time;durP1;ratioP1;P1;durP2;ratioP2;P2;SDS_P1;SDS_P2;PMS_P1;PMS_P2;Temp;Humidity;BMP_temperature;BMP_pressure;BME280_temperature;BME280_humidity;BME280_pressure;Samples;Min_cycle;Max_cycle;Signal;HPM_P1;HPM_P2
2022/11/30 00:01:50;;;;;;;35.20;15.60;;;;;;;-0.17;88.22;101098.30;105708;1292;72923;-76
2022/11/30 00:04:38;;;;;;;34.00;14.50;;;;;;;-0.16;88.31;101100.72;105870;1291;67940;-75
2022/11/30 00:07:26;;;;;;;33.90;13.00;;;;;;;-0.14;88.21;101101.05;104993;1288;1002035;-74
2022/11/30 00:10:14;;;;;;;31.90;15.90;;;;;;;-0.12;88.20;101103.80;105740;1293;58231;-75
2022/11/30 00:13:01;;;;;;;27.10;12.80;;;;;;;-0.12;88.09;101103.45;105903;1291;58621;-75
2022/11/30 00:15:49;;;;;;;28.70;13.20;;;;;;;-0.12;88.04;101107.98;105880;1297;73109;-76
2022/11/30 00:18:37;;;;;;;32.90;15.30;;;;;;;-0.11;88.23;101108.49;105880;1292;68689;-75
2022/11/30 00:21:25;;;;;;;35.40;15.90;;;;;;;-0.09;88.27;101106.71;105129;1291;1002096;-74
2022/11/30 00:24:12;;;;;;;36.40;15.20;;;;;;;-0.06;88.11;101104.92;105876;1294;58781;-75
2022/11/30 00:27:00;;;;;;;27.40;13.60;;;;;;;-0.03;88.28;101101.38;105895;1292;58634;-76
2022/11/30 00:29:48;;;;;;;35.20;16.20;;;;;;;-0.03;87.75;101104.17;105892;1290;73597;-75
2022/11/30 00:32:35;;;;;;;31.70;15.50;;;;;;;-0.04;87.71;101103.66;105876;1291;66808;-76
2022/11/30 00:35:23;;;;;;;32.30;15.90;;;;;;;-0.09;87.66;101105.15;105842;1295;72425;-75
2022/11/30 00:38:11;;;;;;;30.60;13.90;;;;;;;-0.12;87.86;101106.77;105869;1290;58824;-75
2022/11/30 00:41:00;;;;;;;34.30;15.70;;;;;;;-0.13;88.10;101109.73;105860;1285;58703;-75
2022/11/30 00:43:48;;;;;;;36.90;17.30;;;;;;;-0.12;88.11;101107.11;105863;1298;73619;-77
2022/11/30 00:46:35;;;;;;;32.20;15.70;;;;;;;-0.09;88.23;101110.39;105896;1284;66375;-75
2022/11/30 00:49:23;;;;;;;36.00;14.90;;;;;;;-0.09;88.01;101106.01;105856;1298;73727;-75
2022/11/30 00:52:12;;;;;;;31.10;13.10;;;;;;;-0.09;88.12;101105.49;105731;1300;58423;-78
2022/11/30 00:54:59;;;;;;;28.80;13.10;;;;;;;-0.08;88.50;101108.96;105880;1290;58813;-74
2022/11/30 00:57:50;;;;;;;34.00;15.50;;;;;;;-0.06;88.38;101103.88;105885;1293;73981;-76
2022/11/30 01:00:38;;;;;;;37.20;16.30;;;;;;;-0.03;88.40;101104.87;105864;1291;66532;-75
2022/11/30 01:03:26;;;;;;;30.90;15.00;;;;;;;0.02;88.33;101105.83;105846;1286;73965;-75
2022/11/30 01:06:13;;;;;;;34.80;16.40;;;;;;;0.05;88.05;101106.13;105868;1290;57995;-75
2022/11/30 01:09:01;;;;;;;32.40;15.30;;;;;;;0.09;87.88;101107.80;105752;1294;60063;-75
2022/11/30 01:11:49;;;;;;;32.90;15.90;;;;;;;0.07;87.47;101106.42;105884;1291;74956;-74
2022/11/30 01:14:37;;;;;;;36.60;16.20;;;;;;;0.05;87.76;101107.15;105877;1295;68660;-75
2022/11/30 01:17:25;;;;;;;34.80;15.20;;;;;;;0.03;87.61;101111.39;105852;1295;71058;-75
2022/11/30 01:20:13;;;;;;;38.80;16.40;;;;;;;-0.00;87.73;101115.81;105742;1294;60061;-75
2022/11/30 01:23:01;;;;;;;36.40;17.00;;;;;;;-0.03;87.67;101114.98;105995;1291;60026;-75
2022/11/30 01:25:54;;;;;;;33.40;15.00;;;;;;;-0.05;87.90;101113.27;106037;1290;74722;-75
2022/11/30 01:28:43;;;;;;;37.80;17.20;;;;;;;-0.03;88.08;101117.59;106045;1288;68007;-75
2022/11/30 01:31:31;;;;;;;36.50;16.00;;;;;;;-0.05;87.85;101117.45;105963;1290;72411;-75
2022/11/30 01:34:20;;;;;;;34.90;16.40;;;;;;;-0.06;88.03;101116.60;105788;1295;59566;-75
2022/11/30 01:37:08;;;;;;;35.10;16.10;;;;;;;-0.08;88.21;101114.19;105767;1295;61196;-74
2022/11/30 01:39:56;;;;;;;39.90;17.20;;;;;;;-0.07;88.34;101114.17;105856;1295;74892;-75
2022/11/30 01:42:46;;;;;;;34.90;14.90;;;;;;;-0.04;88.42;101115.36;105881;1291;67679;-76
2022/11/30 01:45:33;;;;;;;34.90;16.50;;;;;;;-0.01;88.33;101113.73;105844;1290;73788;-75
2022/11/30 01:48:21;;;;;;;40.10;16.70;;;;;;;0.01;88.09;101112.30;105845;1298;58118;-76
2022/11/30 01:51:09;;;;;;;35.60;16.10;;;;;;;-0.01;88.18;101109.38;105859;1295;61391;-76
2022/11/30 01:53:57;;;;;;;30.50;14.60;;;;;;;-0.01;88.36;101108.49;105880;1300;73114;-77
2022/11/30 01:56:58;;;;;;;35.00;15.60;;;;;;;-0.00;88.65;101106.74;105772;1294;67595;-77
2022/11/30 01:59:49;;;;;;;36.70;16.40;;;;;;;0.04;88.67;101104.74;105855;1287;72372;-74
2022/11/30 02:03:15;;;;;;;36.00;15.60;;;;;;;0.07;88.47;101106.44;105872;1296;57943;-76
2022/11/30 02:06:03;;;;;;;34.30;15.80;;;;;;;0.06;88.14;101107.84;105854;1295;60067;-75
2022/11/30 02:08:52;;;;;;;35.20;16.20;;;;;;;0.04;88.17;101107.38;105871;1298;72249;-76
2022/11/30 02:11:40;;;;;;;35.00;16.00;;;;;;;0.01;88.30;101107.24;105750;1292;66217;-74
2022/11/30 02:14:57;;;;;;;35.70;16.30;;;;;;;0.02;88.47;101104.43;105871;1298;73510;-75
2022/11/30 02:18:05;;;;;;;35.20;16.00;;;;;;;-0.01;88.40;101107.45;105884;1290;58077;-75
2022/11/30 02:21:14;;;;;;;35.20;15.30;;;;;;;-0.01;88.75;101109.18;105852;1291;61376;-74
2022/11/30 02:24:07;;;;;;;31.70;14.90;;;;;;;0.00;88.79;101110.06;105858;1298;72443;-76
2022/11/30 02:27:04;;;;;;;32.80;15.50;;;;;;;-0.00;88.85;101113.02;105742;1292;69182;-76
2022/11/30 02:30:01;;;;;;;34.50;15.10;;;;;;;-0.03;88.69;101112.53;105896;1292;72582;-73
2022/11/30 02:32:54;;;;;;;33.10;14.90;;;;;;;-0.05;88.98;101112.92;105878;1292;58326;-75
2022/11/30 02:35:49;;;;;;;36.10;15.40;;;;;;;-0.07;89.05;101115.73;105742;1288;61154;-74
2022/11/30 02:38:42;;;;;;;32.50;15.10;;;;;;;-0.06;89.42;101113.80;105725;1294;75079;-74
2022/11/30 02:41:38;;;;;;;34.20;16.30;;;;;;;-0.04;89.28;101116.22;105757;1300;69205;-75
2022/11/30 02:44:27;;;;;;;35.60;15.10;;;;;;;-0.03;89.19;101117.78;105843;1291;72461;-75
2022/11/30 02:47:33;;;;;;;33.50;16.80;;;;;;;-0.03;89.03;101120.04;105748;1300;58014;-75
2022/11/30 02:50:30;;;;;;;34.20;16.00;;;;;;;-0.03;89.25;101121.79;105770;1292;60114;-75
2022/11/30 02:53:18;;;;;;;33.00;15.10;;;;;;;-0.04;89.24;101122.50;105746;1293;73893;-74
2022/11/30 02:56:06;;;;;;;33.60;14.80;;;;;;;-0.03;89.38;101119.87;105885;1299;69260;-74
2022/11/30 02:58:54;;;;;;;36.80;16.00;;;;;;;-0.05;89.40;101115.71;105011;1295;1014018;-73
2022/11/30 03:01:42;;;;;;;32.60;16.50;;;;;;;-0.07;89.47;101116.10;105864;1291;58032;-76
2022/11/30 03:04:30;;;;;;;33.70;15.90;;;;;;;-0.08;89.33;101116.11;105885;1294;60061;-75
2022/11/30 03:07:17;;;;;;;34.90;15.20;;;;;;;-0.08;89.42;101115.77;105120;1291;1002843;-75
2022/11/30 03:10:06;;;;;;;35.10;15.40;;;;;;;-0.07;89.40;101114.69;105743;1295;68682;-74
2022/11/30 03:12:59;;;;;;;31.50;15.00;;;;;;;-0.05;89.37;101115.88;105874;1292;72647;-74
2022/11/30 03:15:47;;;;;;;32.80;14.90;;;;;;;-0.04;89.49;101113.61;105688;1298;57974;-75
2022/11/30 03:18:35;;;;;;;32.50;14.50;;;;;;;-0.04;89.46;101117.98;105763;1295;60264;-74
2022/11/30 03:21:23;;;;;;;33.40;14.60;;;;;;;-0.07;89.51;101124.66;105866;1295;75042;-75
2022/11/30 03:24:11;;;;;;;36.20;15.70;;;;;;;-0.08;89.55;101125.89;105863;1288;68630;-75
2022/11/30 03:26:59;;;;;;;32.90;16.60;;;;;;;-0.10;89.61;101125.92;105855;1292;72816;-74
2022/11/30 03:29:46;;;;;;;35.90;15.80;;;;;;;-0.12;89.71;101133.45;105860;1295;60179;-76
2022/11/30 03:32:34;;;;;;;32.70;15.80;;;;;;;-0.11;89.68;101131.69;105883;1298;60298;-75
2022/11/30 03:35:21;;;;;;;33.30;14.00;;;;;;;-0.12;89.92;101136.60;105727;1294;74971;-74
2022/11/30 03:38:09;;;;;;;34.20;15.20;;;;;;;-0.16;89.98;101141.02;105892;1295;68089;-75
2022/11/30 03:41:01;;;;;;;32.30;15.10;;;;;;;-0.18;89.94;101148.91;105850;1292;72378;-74
2022/11/30 03:43:49;;;;;;;34.80;14.50;;;;;;;-0.17;90.05;101149.23;105692;1292;58687;-74
2022/11/30 03:46:36;;;;;;;35.50;16.50;;;;;;;-0.15;90.01;101156.02;105871;1292;59013;-74
2022/11/30 03:49:24;;;;;;;29.40;13.40;;;;;;;-0.16;89.94;101159.52;105871;1290;74662;-74
2022/11/30 03:52:11;;;;;;;34.00;15.40;;;;;;;-0.18;89.81;101164.43;105117;1287;1002865;-75
2022/11/30 03:54:59;;;;;;;33.40;15.00;;;;;;;-0.18;90.07;101164.42;105859;1286;71167;-73
2022/11/30 03:57:47;;;;;;;33.10;15.60;;;;;;;-0.17;90.04;101170.69;105879;1295;58056;-75
2022/11/30 04:00:35;;;;;;;32.90;15.10;;;;;;;-0.16;90.05;101169.65;105742;1292;61173;-75
2022/11/30 04:03:23;;;;;;;34.50;16.20;;;;;;;-0.15;90.09;101173.45;105130;1288;1002505;-76
2022/11/30 04:06:11;;;;;;;36.60;15.80;;;;;;;-0.13;89.90;101174.46;105750;1294;66297;-75
2022/11/30 04:08:58;;;;;;;32.50;15.50;;;;;;;-0.11;89.80;101171.64;105738;1295;72326;-76
2022/11/30 04:11:46;;;;;;;31.50;14.50;;;;;;;-0.13;89.61;101170.10;105899;1290;58041;-75
2022/11/30 04:14:34;;;;;;;34.00;16.60;;;;;;;-0.13;89.95;101164.02;105875;1294;60137;-74
2022/11/30 04:17:21;;;;;;;32.10;16.00;;;;;;;-0.12;89.85;101161.19;105878;1297;72243;-75
2022/11/30 04:20:10;;;;;;;32.20;15.30;;;;;;;-0.09;89.61;101164.29;105876;1295;69118;-76
2022/11/30 04:22:58;;;;;;;34.90;15.10;;;;;;;-0.08;89.69;101163.23;105862;1292;73950;-75
2022/11/30 04:25:46;;;;;;;31.10;14.80;;;;;;;-0.07;89.44;101162.69;105865;1295;58029;-75
2022/11/30 04:28:34;;;;;;;33.20;15.10;;;;;;;-0.07;89.43;101159.55;105724;1290;61538;-75
2022/11/30 04:31:22;;;;;;;36.10;16.10;;;;;;;-0.09;89.58;101166.02;104986;1297;1002394;-75
2022/11/30 04:34:10;;;;;;;29.90;14.10;;;;;;;-0.09;89.52;101166.38;105884;1292;68664;-75
2022/11/30 04:36:58;;;;;;;32.80;14.90;;;;;;;-0.13;89.49;101167.84;105749;1287;71981;-76
2022/11/30 04:39:47;;;;;;;32.50;15.80;;;;;;;-0.15;89.55;101167.69;105866;1292;59573;-75
2022/11/30 04:42:35;;;;;;;32.20;14.90;;;;;;;-0.17;89.58;101164.07;105888;1295;58932;-75
2022/11/30 04:45:22;;;;;;;31.60;13.80;;;;;;;-0.16;89.82;101167.72;105884;1295;72558;-75
2022/11/30 04:48:11;;;;;;;34.00;15.10;;;;;;;-0.19;89.73;101166.52;105752;1300;67014;-75
2022/11/30 04:51:01;;;;;;;31.20;14.30;;;;;;;-0.22;89.97;101169.91;105009;1296;1002995;-75
2022/11/30 04:53:48;;;;;;;34.00;13.50;;;;;;;-0.24;90.10;101167.33;105690;1288;59572;-75
2022/11/30 04:56:36;;;;;;;35.00;15.10;;;;;;;-0.24;90.06;101164.34;105876;1285;60281;-74
2022/11/30 04:59:23;;;;;;;32.00;14.80;;;;;;;-0.21;90.12;101167.09;105736;1294;72480;-74
2022/11/30 05:02:11;;;;;;;31.60;15.30;;;;;;;-0.18;90.08;101165.82;105897;1292;67549;-79
2022/11/30 05:04:58;;;;;;;27.90;13.00;;;;;;;-0.18;89.96;101166.70;105701;1300;71574;-74
2022/11/30 05:07:54;;;;;;;30.10;13.40;;;;;;;-0.18;90.03;101168.79;105875;1290;58174;-74
2022/11/30 05:10:41;;;;;;;31.90;15.10;;;;;;;-0.18;90.07;101172.81;105759;1294;58817;-74
2022/11/30 05:13:29;;;;;;;34.40;15.70;;;;;;;-0.20;90.00;101171.44;105864;1285;74629;-75
2022/11/30 05:16:17;;;;;;;31.30;15.00;;;;;;;-0.19;90.02;101172.46;105725;1295;67601;-75
2022/11/30 05:19:04;;;;;;;33.30;15.70;;;;;;;-0.19;90.18;101173.52;105846;1288;73750;-76
2022/11/30 05:21:52;;;;;;;35.90;16.00;;;;;;;-0.19;90.03;101174.20;105856;1295;57960;-75
2022/11/30 05:24:40;;;;;;;30.60;14.50;;;;;;;-0.22;90.13;101175.48;105150;1291;1002337;-74
2022/11/30 05:27:28;;;;;;;35.50;16.30;;;;;;;-0.24;90.08;101175.34;105760;1292;73591;-74
2022/11/30 05:30:16;;;;;;;31.40;14.30;;;;;;;-0.25;90.46;101176.22;105836;1293;67552;-73
2022/11/30 05:33:03;;;;;;;34.50;16.20;;;;;;;-0.23;90.34;101181.95;105788;1292;73686;-76
2022/11/30 05:35:51;;;;;;;33.10;15.70;;;;;;;-0.23;90.39;101183.69;105837;1295;58472;-74
2022/11/30 05:38:38;;;;;;;27.20;11.70;;;;;;;-0.20;90.25;101180.86;105909;1284;59026;-74
2022/11/30 05:41:26;;;;;;;37.40;15.90;;;;;;;-0.21;90.19;101191.16;105847;1291;73862;-74
2022/11/30 05:44:14;;;;;;;36.10;16.60;;;;;;;-0.21;90.04;101189.24;105835;1287;68944;-76
2022/11/30 05:47:01;;;;;;;34.60;16.40;;;;;;;-0.24;90.14;101190.51;105684;1286;214751;-74
2022/11/30 05:49:49;;;;;;;33.70;15.50;;;;;;;-0.21;90.33;101196.91;105849;1292;58529;-75
2022/11/30 05:52:37;;;;;;;33.40;16.40;;;;;;;-0.19;90.30;101199.84;105776;1294;57951;-74
2022/11/30 05:55:24;;;;;;;34.60;16.60;;;;;;;-0.17;90.21;101199.13;105904;1292;73547;-74
2022/11/30 05:58:12;;;;;;;28.10;13.20;;;;;;;-0.15;90.15;101203.81;105907;1292;68998;-74
2022/11/30 06:00:59;;;;;;;32.50;14.80;;;;;;;-0.14;90.15;101202.39;105903;1296;70986;-73
2022/11/30 06:03:47;;;;;;;35.00;15.80;;;;;;;-0.16;89.97;101204.70;105879;1292;59021;-74
2022/11/30 06:06:35;;;;;;;34.80;17.10;;;;;;;-0.20;89.89;101211.74;105846;1292;61168;-74
2022/11/30 06:09:23;;;;;;;35.30;15.50;;;;;;;-0.19;90.08;101208.40;105700;1295;75136;-74
2022/11/30 06:12:10;;;;;;;35.10;16.30;;;;;;;-0.17;89.99;101214.84;105849;1295;68714;-74
2022/11/30 06:14:58;;;;;;;34.20;15.90;;;;;;;-0.15;90.11;101210.09;105820;1287;73901;-74
2022/11/30 06:17:45;;;;;;;31.00;14.60;;;;;;;-0.15;89.74;101217.77;105850;1292;58192;-74
2022/11/30 06:20:33;;;;;;;29.90;14.50;;;;;;;-0.21;89.55;101219.09;105839;1292;58664;-75
2022/11/30 06:23:21;;;;;;;35.70;15.80;;;;;;;-0.26;89.88;101217.56;105860;1292;73710;-75
2022/11/30 06:26:11;;;;;;;36.70;14.80;;;;;;;-0.29;89.98;101221.27;105844;1292;67766;-74
2022/11/30 06:28:59;;;;;;;37.80;16.70;;;;;;;-0.30;90.20;101226.19;105862;1285;71325;-76
2022/11/30 06:31:47;;;;;;;34.60;16.30;;;;;;;-0.33;90.42;101226.56;105863;1291;58068;-75
2022/11/30 06:34:34;;;;;;;33.80;15.20;;;;;;;-0.33;90.51;101222.39;105875;1291;58006;-76
2022/11/30 06:37:22;;;;;;;36.00;16.00;;;;;;;-0.31;90.48;101222.19;105728;1293;72798;-73
2022/11/30 06:40:11;;;;;;;39.60;18.00;;;;;;;-0.31;90.47;101224.80;105848;1287;69184;-73
2022/11/30 06:42:59;;;;;;;39.20;17.40;;;;;;;-0.32;90.57;101228.81;105139;1292;1002302;-73
2022/11/30 06:45:48;;;;;;;37.50;16.90;;;;;;;-0.33;90.66;101228.49;105773;1295;58858;-72
2022/11/30 06:48:37;;;;;;;35.70;16.50;;;;;;;-0.35;90.60;101231.66;105898;1284;58723;-73
2022/11/30 06:51:24;;;;;;;33.10;14.70;;;;;;;-0.33;90.83;101235.82;105777;1284;72567;-73
2022/11/30 06:54:11;;;;;;;35.80;16.40;;;;;;;-0.34;90.84;101237.39;105885;1292;67716;-74
2022/11/30 06:57:00;;;;;;;41.30;17.70;;;;;;;-0.32;91.00;101243.82;105887;1292;69991;-73
2022/11/30 06:59:48;;;;;;;37.00;17.10;;;;;;;-0.31;91.02;101246.95;105720;1292;58391;-76
2022/11/30 07:02:35;;;;;;;39.60;18.30;;;;;;;-0.29;91.04;101246.39;105866;1291;60297;-73
2022/11/30 07:05:23;;;;;;;43.30;17.40;;;;;;;-0.25;91.18;101247.23;105852;1284;72585;-72
2022/11/30 07:08:14;;;;;;;32.40;14.70;;;;;;;-0.18;90.97;101247.11;105836;1292;67598;-75
2022/11/30 07:11:03;;;;;;;37.00;16.50;;;;;;;-0.15;90.66;101249.52;105561;1291;72829;-74
2022/11/30 07:13:50;;;;;;;35.50;15.00;;;;;;;-0.13;90.78;101248.44;105829;1290;57993;-76
2022/11/30 07:16:38;;;;;;;41.40;16.80;;;;;;;-0.10;90.54;101256.77;105696;1292;61348;-71
2022/11/30 07:19:26;;;;;;;38.10;16.40;;;;;;;-0.11;90.39;101255.91;105077;1284;1002239;-72
2022/11/30 07:22:14;;;;;;;39.50;17.40;;;;;;;-0.10;90.58;101258.69;104978;1295;1002787;-81
2022/11/30 07:28:08;;;;;;;39.20;17.20;;;;;;;-0.08;90.43;101262.34;105811;1285;58414;-72
2022/11/30 07:30:56;;;;;;;35.70;16.50;;;;;;;-0.09;90.43;101266.70;105733;1292;59272;-72
2022/11/30 07:33:43;;;;;;;38.80;17.00;;;;;;;-0.08;90.50;101269.30;105841;1288;73919;-75
2022/11/30 07:36:31;;;;;;;37.30;16.20;;;;;;;-0.09;90.28;101269.32;105825;1292;66512;-75
2022/11/30 07:39:19;;;;;;;39.00;16.90;;;;;;;-0.11;90.36;101271.79;105819;1287;72393;-70
2022/11/30 07:42:07;;;;;;;35.90;16.10;;;;;;;-0.14;90.44;101275.85;105867;1293;58609;-75
2022/11/30 07:44:55;;;;;;;35.60;15.90;;;;;;;-0.12;90.56;101274.60;105700;1295;60401;-75
2022/11/30 07:47:45;;;;;;;35.50;15.00;;;;;;;-0.09;90.47;101274.90;105829;1287;73522;-77
2022/11/30 07:50:33;;;;;;;34.10;15.10;;;;;;;-0.06;90.55;101275.92;105822;1284;68074;-73
2022/11/30 07:53:20;;;;;;;37.30;16.50;;;;;;;-0.06;90.06;101273.29;105811;1286;73547;-72
2022/11/30 07:56:12;;;;;;;39.60;17.00;;;;;;;-0.08;90.08;101274.55;105704;1294;58816;-72
2022/11/30 07:59:01;;;;;;;36.40;16.20;;;;;;;-0.08;90.14;101272.63;105742;1292;58663;-71
2022/11/30 08:01:49;;;;;;;35.40;16.20;;;;;;;-0.05;90.35;101275.37;105738;1293;73636;-75
2022/11/30 08:04:37;;;;;;;36.00;16.50;;;;;;;0.00;90.08;101274.42;105849;1293;68767;-74
2022/11/30 08:07:25;;;;;;;33.80;14.50;;;;;;;-0.02;89.78;101272.70;105851;1292;72366;-75
2022/11/30 08:10:12;;;;;;;30.60;14.30;;;;;;;-0.03;89.83;101272.90;105799;1292;58420;-73
2022/11/30 08:13:00;;;;;;;36.10;16.00;;;;;;;-0.03;89.79;101276.04;105842;1292;60317;-73
2022/11/30 08:15:47;;;;;;;35.60;16.50;;;;;;;-0.04;89.68;101271.70;105871;1286;71834;-72
2022/11/30 08:18:36;;;;;;;33.90;15.40;;;;;;;-0.03;89.59;101276.73;105840;1290;66530;-75
2022/11/30 08:21:23;;;;;;;35.90;15.80;;;;;;;-0.02;89.81;101276.02;105785;1294;70217;-72
2022/11/30 08:24:12;;;;;;;35.90;16.90;;;;;;;-0.01;89.63;101277.23;105875;1292;59820;-75
2022/11/30 08:27:00;;;;;;;36.00;16.30;;;;;;;0.02;89.79;101274.23;105143;1292;1002810;-75
2022/11/30 08:29:48;;;;;;;36.50;16.60;;;;;;;0.07;89.55;101280.09;105755;1295;74640;-73
2022/11/30 08:32:36;;;;;;;38.20;16.50;;;;;;;0.05;89.28;101284.48;105853;1292;67492;-74
2022/11/30 08:35:23;;;;;;;36.30;15.10;;;;;;;0.05;89.57;101284.99;105802;1285;72579;-75
2022/11/30 08:38:11;;;;;;;39.30;16.90;;;;;;;0.09;89.66;101288.08;105818;1292;58003;-74
2022/11/30 08:40:58;;;;;;;32.90;15.70;;;;;;;0.10;89.19;101288.77;105828;1292;60009;-73
2022/11/30 08:43:48;;;;;;;34.70;15.30;;;;;;;0.09;88.98;101289.47;105849;1291;74984;-71
2022/11/30 08:46:36;;;;;;;36.80;15.90;;;;;;;0.06;89.07;101294.24;105790;1291;66854;-81
2022/11/30 08:49:40;;;;;;;35.60;15.90;;;;;;;0.04;89.19;101294.96;105909;1285;72557;-81
2022/11/30 08:52:27;;;;;;;36.40;16.80;;;;;;;0.02;89.42;101298.15;105876;1285;57978;-81
2022/11/30 08:55:15;;;;;;;41.90;19.20;;;;;;;0.03;89.60;101297.23;105877;1292;58664;-75
2022/11/30 08:58:02;;;;;;;35.10;15.70;;;;;;;0.07;89.72;101299.98;105900;1289;73853;-75
2022/11/30 09:00:50;;;;;;;34.80;16.20;;;;;;;0.10;89.50;101300.81;105904;1292;67947;-76
2022/11/30 09:03:40;;;;;;;37.60;16.70;;;;;;;0.17;89.58;101310.83;105736;1293;72645;-75
2022/11/30 09:06:29;;;;;;;34.30;15.30;;;;;;;0.26;89.64;101309.64;105883;1293;58492;-76
2022/11/30 09:09:17;;;;;;;37.40;15.20;;;;;;;0.30;88.77;101307.84;105798;1292;59779;-74
2022/11/30 09:12:06;;;;;;;31.80;14.30;;;;;;;0.26;88.28;101308.77;105878;1284;72485;-76
2022/11/30 09:14:53;;;;;;;35.30;15.40;;;;;;;0.21;88.67;101309.20;105893;1292;66186;-75
2022/11/30 09:17:44;;;;;;;37.40;16.40;;;;;;;0.21;88.75;101309.90;105156;1286;1002357;-74
2022/11/30 09:20:34;;;;;;;31.70;13.90;;;;;;;0.21;89.05;101310.77;105112;1292;1002252;-76
2022/11/30 09:23:22;;;;;;;39.10;17.70;;;;;;;0.20;88.71;101309.91;105842;1287;60295;-76
2022/11/30 09:26:13;;;;;;;37.10;17.10;;;;;;;0.18;88.73;101309.60;105809;1287;74611;-76
2022/11/30 09:29:01;;;;;;;35.00;15.40;;;;;;;0.18;88.82;101305.58;105702;1284;68720;-75
2022/11/30 09:31:49;;;;;;;35.10;16.20;;;;;;;0.19;88.72;101305.05;105844;1288;70249;-74
2022/11/30 09:34:36;;;;;;;33.00;14.90;;;;;;;0.20;88.69;101310.63;105848;1292;58076;-74
2022/11/30 09:37:24;;;;;;;37.20;16.90;;;;;;;0.22;88.88;101311.10;105874;1278;58958;-74
2022/11/30 09:40:13;;;;;;;38.30;17.50;;;;;;;0.20;88.45;101306.43;105846;1292;73805;-74
2022/11/30 09:43:32;;;;;;;43.70;18.30;;;;;;;0.18;88.72;101302.98;105873;1292;66339;-77
2022/11/30 09:46:27;;;;;;;42.10;17.00;;;;;;;0.17;88.91;101307.52;104995;1291;1003001;-76
2022/11/30 09:49:23;;;;;;;34.70;15.10;;;;;;;0.19;89.03;101308.02;105712;1292;59658;-76
2022/11/30 09:52:18;;;;;;;36.20;16.10;;;;;;;0.21;88.91;101305.01;105738;1285;60102;-74
2022/11/30 09:55:09;;;;;;;36.00;16.60;;;;;;;0.20;88.70;101306.23;105094;1295;1002940;-75
2022/11/30 09:58:04;;;;;;;30.30;13.50;;;;;;;0.17;88.59;101306.83;105717;1295;68982;-75
2022/11/30 10:00:52;;;;;;;38.20;17.40;;;;;;;0.11;88.88;101304.12;104965;1294;1002243;-74
2022/11/30 10:03:39;;;;;;;37.50;17.30;;;;;;;0.07;89.18;101300.34;105820;1292;58548;-77
2022/11/30 10:06:40;;;;;;;39.60;16.90;;;;;;;0.07;89.43;101300.51;105854;1288;60103;-75
2022/11/30 10:09:36;;;;;;;38.40;17.20;;;;;;;0.11;89.49;101298.88;105852;1287;71686;-75
2022/11/30 10:12:33;;;;;;;36.70;16.80;;;;;;;0.18;89.33;101295.63;105845;1286;67717;-75
2022/11/30 10:15:38;;;;;;;32.30;14.70;;;;;;;0.25;89.36;101296.23;105831;1292;72438;-74
2022/11/30 10:19:14;;;;;;;34.30;16.30;;;;;;;0.32;89.06;101292.79;105729;1292;58441;-75
2022/11/30 10:22:39;;;;;;;39.40;18.10;;;;;;;0.33;88.60;101289.46;105148;1302;58714;-76
2022/11/30 10:25:55;;;;;;;40.50;17.50;;;;;;;0.35;88.73;101288.38;105029;1296;73667;-74
2022/11/30 10:28:55;;;;;;;26.30;10.90;;;;;;;0.43;88.92;101289.14;105135;1294;66761;-75
2022/11/30 10:31:45;;;;;;;38.70;17.20;;;;;;;0.45;88.23;101289.28;105107;1300;72622;-75
2022/11/30 10:34:34;;;;;;;37.90;16.30;;;;;;;0.50;88.31;101288.16;105013;1303;58530;-74
2022/11/30 10:37:50;;;;;;;40.70;17.10;;;;;;;0.51;88.14;101291.09;105143;1300;60071;-75
2022/11/30 10:40:48;;;;;;;38.00;18.10;;;;;;;0.49;87.88;101287.80;105086;1296;74809;-75
2022/11/30 10:43:56;;;;;;;41.40;18.70;;;;;;;0.49;88.06;101291.65;105059;1303;67652;-75
2022/11/30 10:46:59;;;;;;;41.10;18.80;;;;;;;0.45;87.66;101288.05;105011;1302;74278;-76
2022/11/30 10:49:50;;;;;;;41.80;17.40;;;;;;;0.41;87.89;101288.98;104297;1303;1002050;-76
2022/11/30 10:52:46;;;;;;;37.60;16.90;;;;;;;0.46;88.07;101293.80;105154;1295;58996;-78
2022/11/30 10:55:39;;;;;;;41.20;18.50;;;;;;;0.47;87.96;101295.88;105046;1296;73769;-76
2022/11/30 10:58:43;;;;;;;41.90;18.70;;;;;;;0.44;87.52;101295.94;105478;1296;67540;-79
2022/11/30 11:01:34;;;;;;;42.10;17.90;;;;;;;0.33;87.46;101305.02;104994;1289;1002104;-79
2022/11/30 11:04:26;;;;;;;40.20;18.10;;;;;;;0.26;87.74;101301.98;105859;1292;58482;-77
2022/11/30 11:07:14;;;;;;;39.10;18.30;;;;;;;0.24;87.93;101305.32;105859;1292;60018;-76
2022/11/30 11:10:02;;;;;;;37.40;16.30;;;;;;;0.21;87.83;101299.43;105669;1300;72312;-77
2022/11/30 11:12:53;;;;;;;40.80;17.00;;;;;;;0.22;88.16;101299.59;105858;1300;68249;-75
2022/11/30 11:15:56;;;;;;;38.80;17.70;;;;;;;0.19;87.88;101296.84;105838;1292;70949;-75
2022/11/30 11:18:56;;;;;;;37.90;16.70;;;;;;;0.19;88.10;101298.06;105756;1288;58481;-76
2022/11/30 11:21:49;;;;;;;39.90;17.70;;;;;;;0.21;88.04;101295.75;105715;1295;60297;-76
2022/11/30 11:24:36;;;;;;;40.10;17.30;;;;;;;0.25;88.06;101295.00;105830;1278;74771;-76
2022/11/30 11:27:29;;;;;;;35.50;16.10;;;;;;;0.27;87.80;101295.50;105782;1293;68097;-74
2022/11/30 11:30:23;;;;;;;36.50;16.10;;;;;;;0.33;88.13;101294.70;105806;1294;70151;-77
2022/11/30 11:33:10;;;;;;;40.10;17.20;;;;;;;0.37;87.64;101297.61;105864;1291;58418;-76
2022/11/30 11:36:07;;;;;;;37.50;17.50;;;;;;;0.35;87.25;101293.96;105862;1284;61219;-77
2022/11/30 11:38:56;;;;;;;35.10;15.70;;;;;;;0.32;87.09;101298.39;105832;1292;72649;-77
2022/11/30 11:41:44;;;;;;;37.10;17.60;;;;;;;0.30;87.10;101298.06;105864;1292;67569;-77
2022/11/30 11:44:33;;;;;;;35.70;16.80;;;;;;;0.25;87.23;101298.14;105761;1292;72389;-79
2022/11/30 11:47:38;;;;;;;36.00;16.40;;;;;;;0.24;87.57;101298.86;105780;1285;58096;-77
2022/11/30 11:50:37;;;;;;;40.50;17.50;;;;;;;0.21;87.59;101305.36;105824;1284;61401;-76
2022/11/30 11:54:10;;;;;;;38.10;16.90;;;;;;;0.19;87.75;101305.22;105791;1292;73747;-80
2022/11/30 11:56:59;;;;;;;39.10;16.30;;;;;;;0.20;87.91;101307.66;105830;1292;68644;-76
2022/11/30 12:00:04;;;;;;;40.90;17.70;;;;;;;0.23;87.99;101305.33;105849;1284;72579;-76
2022/11/30 12:03:12;;;;;;;43.50;17.30;;;;;;;0.27;87.98;101307.53;105872;1292;58075;-76
2022/11/30 12:06:09;;;;;;;37.40;15.90;;;;;;;0.30;87.79;101309.08;105862;1295;60265;-76
2022/11/30 12:09:05;;;;;;;42.00;17.00;;;;;;;0.30;87.80;101312.71;105775;1292;71258;-77
2022/11/30 12:11:53;;;;;;;42.70;18.00;;;;;;;0.34;87.84;101310.23;105777;1288;68769;-76
2022/11/30 12:14:41;;;;;;;38.30;17.40;;;;;;;0.35;87.55;101313.52;105804;1300;73682;-78
2022/11/30 12:17:45;;;;;;;37.80;16.30;;;;;;;0.36;87.48;101315.61;105852;1292;58054;-78
2022/11/30 12:21:03;;;;;;;40.30;17.70;;;;;;;0.37;87.68;101314.55;105808;1294;58699;-76
2022/11/30 12:24:03;;;;;;;33.40;14.60;;;;;;;0.35;87.45;101317.54;105888;1286;73548;-79
2022/11/30 12:26:57;;;;;;;42.60;18.00;;;;;;;0.28;87.55;101316.42;105779;1287;66218;-75
2022/11/30 12:30:16;;;;;;;39.30;17.60;;;;;;;0.25;87.80;101313.85;105881;1291;73830;-78
2022/11/30 12:34:00;;;;;;;38.20;16.70;;;;;;;0.28;87.99;101314.69;105859;1292;58671;-78
2022/11/30 12:37:22;;;;;;;40.10;16.40;;;;;;;0.25;87.95;101316.12;105923;1292;58699;-76
2022/11/30 12:40:57;;;;;;;37.40;17.00;;;;;;;0.21;88.06;101313.22;105810;1293;74839;-75
2022/11/30 12:43:59;;;;;;;41.00;18.50;;;;;;;0.18;88.60;101312.04;105761;1288;67955;-77
2022/11/30 12:47:24;;;;;;;41.90;17.80;;;;;;;0.20;88.67;101309.21;105776;1299;73686;-76
2022/11/30 12:50:34;;;;;;;45.10;18.70;;;;;;;0.25;88.68;101308.79;105907;1292;58383;-76
2022/11/30 12:54:03;;;;;;;40.70;17.10;;;;;;;0.29;88.19;101315.53;105825;1288;60043;-76
2022/11/30 12:57:15;;;;;;;38.60;16.10;;;;;;;0.28;88.36;101318.34;105897;1292;75062;-79
2022/11/30 13:00:21;;;;;;;38.50;16.80;;;;;;;0.26;88.19;101320.12;105931;1292;66395;-78